sensor_id;sensor_type;location;lat;lon;timestamp;pressure;altitude;pressure_sealevel;temperature;humidity
64294;BME280;50636;45.596;5.258;2023-05-31T00:01:48;98487.16;;;20.05;51.68
64294;BME280;50636;45.596;5.258;2023-05-31T00:04:13;98478.34;;;20.20;51.68
64294;BME280;50636;45.596;5.258;2023-05-31T00:06:39;98475.94;;;20.29;51.39
64294;BME280;50636;45.596;5.258;2023-05-31T00:09:05;98478.31;;;20.35;51.19
64294;BME280;50636;45.596;5.258;2023-05-31T00:11:30;98478.31;;;20.35;51.02
64294;BME280;50636;45.596;5.258;2023-05-31T00:13:56;98479.94;;;20.37;51.10
64294;BME280;50636;45.596;5.258;2023-05-31T00:16:21;98482.06;;;20.34;51.07
64294;BME280;50636;45.596;5.258;2023-05-31T00:18:47;98481.00;;;20.35;51.09
64294;BME280;50636;45.596;5.258;2023-05-31T00:21:13;98482.06;;;20.34;51.15
64294;BME280;50636;45.596;5.258;2023-05-31T00:23:38;98479.69;;;20.23;51.28
64294;BME280;50636;45.596;5.258;2023-05-31T00:26:04;98487.44;;;19.99;51.73
64294;BME280;50636;45.596;5.258;2023-05-31T00:28:30;98488.47;;;19.87;52.45
64294;BME280;50636;45.596;5.258;2023-05-31T00:30:56;98484.22;;;19.71;52.75
64294;BME280;50636;45.596;5.258;2023-05-31T00:33:21;98491.63;;;19.64;53.22
64294;BME280;50636;45.596;5.258;2023-05-31T00:35:47;98484.44;;;19.59;53.84
64294;BME280;50636;45.596;5.258;2023-05-31T00:38:13;98479.09;;;19.49;54.05
64294;BME280;50636;45.596;5.258;2023-05-31T00:40:38;98483.31;;;19.40;54.23
64294;BME280;50636;45.596;5.258;2023-05-31T00:43:04;98483.56;;;19.18;54.60
64294;BME280;50636;45.596;5.258;2023-05-31T00:45:31;98484.28;;;19.03;55.31
64294;BME280;50636;45.596;5.258;2023-05-31T00:47:59;98491.38;;;18.82;55.96
64294;BME280;50636;45.596;5.258;2023-05-31T00:50:26;98491.56;;;18.75;56.59
64294;BME280;50636;45.596;5.258;2023-05-31T00:52:53;98486.25;;;18.75;56.82
64294;BME280;50636;45.596;5.258;2023-05-31T00:55:20;98490.47;;;18.66;56.82
64294;BME280;50636;45.596;5.258;2023-05-31T00:57:46;98491.75;;;18.63;56.84
64294;BME280;50636;45.596;5.258;2023-05-31T01:00:13;98492.34;;;18.65;57.24
64294;BME280;50636;45.596;5.258;2023-05-31T01:02:40;98481.13;;;18.63;57.09
64294;BME280;50636;45.596;5.258;2023-05-31T01:05:09;98490.13;;;18.57;57.26
64294;BME280;50636;45.596;5.258;2023-05-31T01:07:36;98488.78;;;18.49;57.29
64294;BME280;50636;45.596;5.258;2023-05-31T01:10:02;98483.13;;;18.41;58.25
64294;BME280;50636;45.596;5.258;2023-05-31T01:13:01;98490.06;;;18.42;58.30
64294;BME280;50636;45.596;5.258;2023-05-31T01:15:38;98494.00;;;18.34;57.90
64294;BME280;50636;45.596;5.258;2023-05-31T01:20:39;98502.47;;;18.31;58.36
64294;BME280;50636;45.596;5.258;2023-05-31T01:28:30;98504.63;;;18.34;58.63
64294;BME280;50636;45.596;5.258;2023-05-31T01:31:02;98499.97;;;18.51;57.88
64294;BME280;50636;45.596;5.258;2023-05-31T01:33:28;98499.00;;;18.68;57.56
64294;BME280;50636;45.596;5.258;2023-05-31T01:35:54;98502.03;;;18.82;57.39
64294;BME280;50636;45.596;5.258;2023-05-31T01:38:19;98503.84;;;18.81;57.19
64294;BME280;50636;45.596;5.258;2023-05-31T01:40:45;98506.72;;;18.74;57.29
64294;BME280;50636;45.596;5.258;2023-05-31T01:43:11;98504.50;;;18.61;57.73
64294;BME280;50636;45.596;5.258;2023-05-31T01:45:38;98506.06;;;18.52;58.28
64294;BME280;50636;45.596;5.258;2023-05-31T01:48:05;98502.09;;;18.54;58.12
64294;BME280;50636;45.596;5.258;2023-05-31T01:50:36;98501.00;;;18.45;58.15
64294;BME280;50636;45.596;5.258;2023-05-31T01:53:05;98505.94;;;18.31;58.86
64294;BME280;50636;45.596;5.258;2023-05-31T01:55:31;98510.63;;;18.19;59.11
64294;BME280;50636;45.596;5.258;2023-05-31T01:57:57;98512.41;;;18.08;59.24
64294;BME280;50636;45.596;5.258;2023-05-31T02:00:25;98514.66;;;17.94;60.03
64294;BME280;50636;45.596;5.258;2023-05-31T02:02:52;98516.75;;;17.87;60.49
64294;BME280;50636;45.596;5.258;2023-05-31T02:05:19;98513.97;;;17.77;60.31
64294;BME280;50636;45.596;5.258;2023-05-31T02:07:45;98514.47;;;17.74;60.39
64294;BME280;50636;45.596;5.258;2023-05-31T02:10:12;98511.50;;;17.70;60.68
64294;BME280;50636;45.596;5.258;2023-05-31T02:12:38;98509.91;;;17.69;60.81
64294;BME280;50636;45.596;5.258;2023-05-31T02:15:05;98509.91;;;17.69;60.98
64294;BME280;50636;45.596;5.258;2023-05-31T02:17:41;98510.41;;;17.66;60.96
64294;BME280;50636;45.596;5.258;2023-05-31T02:20:12;98506.66;;;17.62;60.96
64294;BME280;50636;45.596;5.258;2023-05-31T02:22:42;98508.16;;;17.53;61.16
64294;BME280;50636;45.596;5.258;2023-05-31T02:25:09;98516.16;;;17.58;61.29
64294;BME280;50636;45.596;5.258;2023-05-31T02:27:36;98517.41;;;17.50;61.34
64294;BME280;50636;45.596;5.258;2023-05-31T02:30:05;98525.22;;;17.35;61.76
64294;BME280;50636;45.596;5.258;2023-05-31T02:32:32;98522.00;;;17.33;62.05
64294;BME280;50636;45.596;5.258;2023-05-31T02:35:07;98521.81;;;17.40;62.35
64294;BME280;50636;45.596;5.258;2023-05-31T02:37:33;98527.41;;;17.43;62.32
64294;BME280;50636;45.596;5.258;2023-05-31T02:39:59;98529.28;;;17.43;61.93
64294;BME280;50636;45.596;5.258;2023-05-31T02:42:25;98531.25;;;17.30;62.31
64294;BME280;50636;45.596;5.258;2023-05-31T02:44:50;98522.81;;;17.11;62.54
64294;BME280;50636;45.596;5.258;2023-05-31T02:47:16;98524.66;;;17.11;62.87
64294;BME280;50636;45.596;5.258;2023-05-31T02:49:42;98525.69;;;17.10;63.13
64294;BME280;50636;45.596;5.258;2023-05-31T02:52:08;98532.44;;;17.17;62.92
64294;BME280;50636;45.596;5.258;2023-05-31T02:54:33;98528.47;;;17.20;62.76
64294;BME280;50636;45.596;5.258;2023-05-31T02:56:59;98528.09;;;17.33;62.87
64294;BME280;50636;45.596;5.258;2023-05-31T02:59:25;98524.97;;;17.36;62.10
64294;BME280;50636;45.596;5.258;2023-05-31T03:01:51;98523.91;;;17.37;62.20
64294;BME280;50636;45.596;5.258;2023-05-31T03:04:17;98526.50;;;17.32;62.38
64294;BME280;50636;45.596;5.258;2023-05-31T03:06:43;98531.38;;;17.41;62.01
64294;BME280;50636;45.596;5.258;2023-05-31T03:09:09;98528.09;;;17.33;62.30
64294;BME280;50636;45.596;5.258;2023-05-31T03:11:39;98528.09;;;17.33;62.29
64294;BME280;50636;45.596;5.258;2023-05-31T03:14:05;98528.91;;;17.34;61.91
64294;BME280;50636;45.596;5.258;2023-05-31T03:16:30;98520.94;;;17.34;62.16
64294;BME280;50636;45.596;5.258;2023-05-31T03:18:56;98521.69;;;17.29;62.19
64294;BME280;50636;45.596;5.258;2023-05-31T03:21:22;98522.06;;;17.16;62.45
64294;BME280;50636;45.596;5.258;2023-05-31T03:23:48;98524.81;;;17.04;63.29
64294;BME280;50636;45.596;5.258;2023-05-31T03:26:13;98522.00;;;17.11;62.96
64294;BME280;50636;45.596;5.258;2023-05-31T03:28:39;98522.56;;;17.13;62.90
64294;BME280;50636;45.596;5.258;2023-05-31T03:31:05;98516.94;;;17.09;63.08
64294;BME280;50636;45.596;5.258;2023-05-31T03:33:32;98516.75;;;17.16;63.14
64294;BME280;50636;45.596;5.258;2023-05-31T03:35:58;98520.41;;;17.10;62.97
64294;BME280;50636;45.596;5.258;2023-05-31T03:38:23;98524.59;;;17.06;63.36
64294;BME280;50636;45.596;5.258;2023-05-31T03:40:49;98517.25;;;17.13;63.16
64294;BME280;50636;45.596;5.258;2023-05-31T03:43:15;98522.00;;;17.11;62.91
64294;BME280;50636;45.596;5.258;2023-05-31T03:45:40;98519.28;;;17.06;63.15
64294;BME280;50636;45.596;5.258;2023-05-31T03:48:06;98517.25;;;17.13;62.99
64294;BME280;50636;45.596;5.258;2023-05-31T03:50:32;98525.97;;;17.08;62.79
64294;BME280;50636;45.596;5.258;2023-05-31T03:52:57;98524.22;;;16.97;62.80
64294;BME280;50636;45.596;5.258;2023-05-31T03:55:23;98527.75;;;17.03;62.91
64294;BME280;50636;45.596;5.258;2023-05-31T03:57:50;98531.81;;;17.10;62.89
64294;BME280;50636;45.596;5.258;2023-05-31T04:00:16;98542.47;;;17.15;62.53
64294;BME280;50636;45.596;5.258;2023-05-31T04:02:42;98543.53;;;16.92;62.65
64294;BME280;50636;45.596;5.258;2023-05-31T04:05:08;98544.03;;;16.55;64.07
64294;BME280;50636;45.596;5.258;2023-05-31T04:07:34;98556.78;;;16.42;64.41
64294;BME280;50636;45.596;5.258;2023-05-31T04:09:59;98543.16;;;16.33;65.53
64294;BME280;50636;45.596;5.258;2023-05-31T04:12:25;98545.00;;;16.49;65.09
64294;BME280;50636;45.596;5.258;2023-05-31T04:14:51;98555.59;;;16.49;64.56
64294;BME280;50636;45.596;5.258;2023-05-31T04:17:16;98559.34;;;16.53;64.33
64294;BME280;50636;45.596;5.258;2023-05-31T04:19:42;98556.00;;;16.58;64.38
64294;BME280;50636;45.596;5.258;2023-05-31T04:22:08;98558.94;;;16.62;64.24
64294;BME280;50636;45.596;5.258;2023-05-31T04:24:33;98558.53;;;16.70;63.84
64294;BME280;50636;45.596;5.258;2023-05-31T04:26:59;98561.75;;;16.89;63.35
64294;BME280;50636;45.596;5.258;2023-05-31T04:29:29;98563.00;;;17.47;61.75
64294;BME280;50636;45.596;5.258;2023-05-31T04:31:55;98552.78;;;18.10;60.04
64294;BME280;50636;45.596;5.258;2023-05-31T04:34:21;98569.16;;;18.67;58.22
64294;BME280;50636;45.596;5.258;2023-05-31T04:36:46;98564.13;;;19.13;56.60
64294;BME280;50636;45.596;5.258;2023-05-31T04:39:15;98564.78;;;19.41;55.52
64294;BME280;50636;45.596;5.258;2023-05-31T04:41:42;98556.88;;;19.66;54.29
64294;BME280;50636;45.596;5.258;2023-05-31T04:44:08;98559.56;;;19.82;54.24
64294;BME280;50636;45.596;5.258;2023-05-31T04:46:33;98558.78;;;19.81;53.94
64294;BME280;50636;45.596;5.258;2023-05-31T04:48:59;98566.44;;;19.62;54.38
64294;BME280;50636;45.596;5.258;2023-05-31T04:51:26;98563.56;;;19.79;54.28
64294;BME280;50636;45.596;5.258;2023-05-31T04:53:52;98560.41;;;20.33;53.16
64294;BME280;50636;45.596;5.258;2023-05-31T04:56:18;98563.25;;;21.09;50.92
64294;BME280;50636;45.596;5.258;2023-05-31T04:58:44;98559.50;;;21.75;48.74
64294;BME280;50636;45.596;5.258;2023-05-31T05:01:10;98554.41;;;21.79;48.13
64294;BME280;50636;45.596;5.258;2023-05-31T05:03:40;98556.06;;;22.43;47.37
64294;BME280;50636;45.596;5.258;2023-05-31T05:06:16;98556.13;;;23.21;45.15
64294;BME280;50636;45.596;5.258;2023-05-31T05:08:43;98553.63;;;23.48;44.14
64294;BME280;50636;45.596;5.258;2023-05-31T05:11:08;98557.53;;;23.75;43.06
64294;BME280;50636;45.596;5.258;2023-05-31T05:13:35;98562.16;;;23.69;43.22
64294;BME280;50636;45.596;5.258;2023-05-31T05:16:00;98559.59;;;23.83;42.63
64294;BME280;50636;45.596;5.258;2023-05-31T05:18:28;98560.56;;;24.58;41.41
64294;BME280;50636;45.596;5.258;2023-05-31T05:20:54;98565.34;;;25.58;39.25
64294;BME280;50636;45.596;5.258;2023-05-31T05:23:19;98565.56;;;25.62;38.56
64294;BME280;50636;45.596;5.258;2023-05-31T05:25:45;98561.00;;;25.21;39.01
64294;BME280;50636;45.596;5.258;2023-05-31T05:28:11;98566.31;;;25.26;39.41
64294;BME280;50636;45.596;5.258;2023-05-31T05:30:37;98561.91;;;26.17;37.96
64294;BME280;50636;45.596;5.258;2023-05-31T05:33:03;98562.72;;;26.71;35.80
64294;BME280;50636;45.596;5.258;2023-05-31T05:35:29;98570.13;;;26.43;37.01
64294;BME280;50636;45.596;5.258;2023-05-31T05:37:55;98564.41;;;26.58;36.38
64294;BME280;50636;45.596;5.258;2023-05-31T05:40:23;98567.50;;;26.83;35.82
64294;BME280;50636;45.596;5.258;2023-05-31T05:42:49;98564.88;;;27.00;36.43
64294;BME280;50636;45.596;5.258;2023-05-31T05:45:15;98566.75;;;27.48;35.24
64294;BME280;50636;45.596;5.258;2023-05-31T05:47:41;98561.66;;;27.38;35.09
64294;BME280;50636;45.596;5.258;2023-05-31T05:50:11;98564.09;;;27.83;34.71
64294;BME280;50636;45.596;5.258;2023-05-31T05:52:37;98570.06;;;28.59;33.19
64294;BME280;50636;45.596;5.258;2023-05-31T05:55:04;98567.19;;;29.41;31.67
64294;BME280;50636;45.596;5.258;2023-05-31T05:57:30;98568.16;;;29.87;31.43
64294;BME280;50636;45.596;5.258;2023-05-31T05:59:56;98556.09;;;30.51;30.18
64294;BME280;50636;45.596;5.258;2023-05-31T06:02:22;98558.25;;;31.56;28.83
64294;BME280;50636;45.596;5.258;2023-05-31T06:04:48;98567.03;;;32.50;27.54
64294;BME280;50636;45.596;5.258;2023-05-31T06:07:18;98563.19;;;33.31;25.83
64294;BME280;50636;45.596;5.258;2023-05-31T06:09:45;98564.81;;;33.90;25.21
64294;BME280;50636;45.596;5.258;2023-05-31T06:12:11;98562.13;;;34.33;24.02
64294;BME280;50636;45.596;5.258;2023-05-31T06:14:37;98568.84;;;33.77;24.32
64294;BME280;50636;45.596;5.258;2023-05-31T06:17:03;98572.56;;;33.69;24.68
64294;BME280;50636;45.596;5.258;2023-05-31T06:19:29;98577.47;;;33.28;23.99
64294;BME280;50636;45.596;5.258;2023-05-31T06:21:54;98586.34;;;33.60;24.67
64294;BME280;50636;45.596;5.258;2023-05-31T06:24:23;98579.50;;;34.25;23.75
64294;BME280;50636;45.596;5.258;2023-05-31T06:26:49;98584.41;;;34.81;23.14
64294;BME280;50636;45.596;5.258;2023-05-31T06:29:14;98587.75;;;34.71;22.77
64294;BME280;50636;45.596;5.258;2023-05-31T06:31:40;98584.41;;;34.81;23.41
64294;BME280;50636;45.596;5.258;2023-05-31T06:34:07;98577.84;;;35.35;22.29
64294;BME280;50636;45.596;5.258;2023-05-31T06:36:33;98573.63;;;35.41;22.14
64294;BME280;50636;45.596;5.258;2023-05-31T06:38:59;98568.47;;;35.63;21.57
64294;BME280;50636;45.596;5.258;2023-05-31T06:41:25;98577.63;;;36.08;21.03
64294;BME280;50636;45.596;5.258;2023-05-31T06:43:52;98575.31;;;36.14;21.04
64294;BME280;50636;45.596;5.258;2023-05-31T06:46:17;98572.31;;;36.23;20.87
64294;BME280;50636;45.596;5.258;2023-05-31T06:48:43;98574.75;;;36.31;20.55
64294;BME280;50636;45.596;5.258;2023-05-31T06:51:09;98569.13;;;36.17;20.51
64294;BME280;50636;45.596;5.258;2023-05-31T06:53:35;98575.19;;;36.37;20.39
64294;BME280;50636;45.596;5.258;2023-05-31T06:56:01;98581.06;;;36.76;20.23
64294;BME280;50636;45.596;5.258;2023-05-31T06:58:30;98581.47;;;36.82;20.66
64294;BME280;50636;45.596;5.258;2023-05-31T07:00:57;98576.84;;;36.90;19.92
64294;BME280;50636;45.596;5.258;2023-05-31T07:03:22;98570.00;;;36.66;20.15
64294;BME280;50636;45.596;5.258;2023-05-31T07:05:48;98574.09;;;36.90;20.42
64294;BME280;50636;45.596;5.258;2023-05-31T07:08:14;98571.91;;;37.10;20.01
64294;BME280;50636;45.596;5.258;2023-05-31T07:10:43;98569.16;;;37.72;19.57
64294;BME280;50636;45.596;5.258;2023-05-31T07:13:11;98572.72;;;37.91;18.98
64294;BME280;50636;45.596;5.258;2023-05-31T07:15:36;98567.25;;;37.91;18.39
64294;BME280;50636;45.596;5.258;2023-05-31T07:18:02;98571.25;;;38.08;18.55
64294;BME280;50636;45.596;5.258;2023-05-31T07:20:28;98562.72;;;37.40;18.98
64294;BME280;50636;45.596;5.258;2023-05-31T07:22:54;98567.59;;;36.61;19.07
64294;BME280;50636;45.596;5.258;2023-05-31T07:25:20;98571.19;;;35.93;20.02
64294;BME280;50636;45.596;5.258;2023-05-31T07:27:45;98571.28;;;35.40;20.41
64294;BME280;50636;45.596;5.258;2023-05-31T07:30:11;98570.97;;;35.18;21.23
64294;BME280;50636;45.596;5.258;2023-05-31T07:32:37;98570.75;;;34.58;21.12
64294;BME280;50636;45.596;5.258;2023-05-31T07:35:03;98567.88;;;34.08;22.27
64294;BME280;50636;45.596;5.258;2023-05-31T07:37:29;98577.06;;;33.80;22.48
64294;BME280;50636;45.596;5.258;2023-05-31T07:39:55;98571.00;;;33.87;22.82
64294;BME280;50636;45.596;5.258;2023-05-31T07:42:20;98566.53;;;33.98;22.25
64294;BME280;50636;45.596;5.258;2023-05-31T07:44:47;98567.75;;;34.20;21.94
64294;BME280;50636;45.596;5.258;2023-05-31T07:47:15;98565.25;;;34.54;21.74
64294;BME280;50636;45.596;5.258;2023-05-31T07:49:41;98555.06;;;34.97;21.09
64294;BME280;50636;45.596;5.258;2023-05-31T07:52:07;98553.53;;;35.00;21.40
64294;BME280;50636;45.596;5.258;2023-05-31T07:54:32;98563.81;;;35.10;21.23
64294;BME280;50636;45.596;5.258;2023-05-31T07:56:58;98558.97;;;35.53;21.04
64294;BME280;50636;45.596;5.258;2023-05-31T07:59:24;98559.38;;;36.57;20.12
64294;BME280;50636;45.596;5.258;2023-05-31T08:01:50;98562.75;;;37.50;19.37
64294;BME280;50636;45.596;5.258;2023-05-31T08:04:16;98549.75;;;38.28;18.81
64294;BME280;50636;45.596;5.258;2023-05-31T08:06:42;98551.31;;;38.47;18.55
64294;BME280;50636;45.596;5.258;2023-05-31T08:09:08;98550.94;;;38.73;18.81
64294;BME280;50636;45.596;5.258;2023-05-31T08:11:34;98556.44;;;39.09;18.06
64294;BME280;50636;45.596;5.258;2023-05-31T08:14:03;98554.88;;;39.08;18.03
64294;BME280;50636;45.596;5.258;2023-05-31T08:16:31;98550.44;;;39.54;17.40
64294;BME280;50636;45.596;5.258;2023-05-31T08:18:57;98544.34;;;40.02;16.94
64294;BME280;50636;45.596;5.258;2023-05-31T08:21:23;98550.44;;;40.28;16.60
64294;BME280;50636;45.596;5.258;2023-05-31T08:23:49;98548.31;;;40.53;16.43
64294;BME280;50636;45.596;5.258;2023-05-31T08:26:15;98549.59;;;40.42;16.69
64294;BME280;50636;45.596;5.258;2023-05-31T08:28:41;98545.56;;;40.57;16.26
64294;BME280;50636;45.596;5.258;2023-05-31T08:31:07;98537.97;;;40.68;16.45
64294;BME280;50636;45.596;5.258;2023-05-31T08:33:33;98537.50;;;40.81;16.61
64294;BME280;50636;45.596;5.258;2023-05-31T08:36:01;98538.19;;;40.88;16.04
64294;BME280;50636;45.596;5.258;2023-05-31T08:38:29;98536.03;;;41.45;16.15
64294;BME280;50636;45.596;5.258;2023-05-31T08:44:07;98530.72;;;41.92;15.76
64294;BME280;50636;45.596;5.258;2023-05-31T08:46:34;98525.84;;;41.76;15.39
64294;BME280;50636;45.596;5.258;2023-05-31T08:49:13;98528.09;;;41.50;15.81
64294;BME280;50636;45.596;5.258;2023-05-31T08:51:43;98530.25;;;41.70;15.68
64294;BME280;50636;45.596;5.258;2023-05-31T08:54:11;98530.25;;;41.97;15.75
64294;BME280;50636;45.596;5.258;2023-05-31T08:56:38;98531.16;;;42.18;15.38
64294;BME280;50636;45.596;5.258;2023-05-31T08:59:09;98522.69;;;42.01;15.57
64294;BME280;50636;45.596;5.258;2023-05-31T09:01:40;98523.81;;;41.80;15.37
64294;BME280;50636;45.596;5.258;2023-05-31T09:04:07;98518.41;;;41.69;15.70
64294;BME280;50636;45.596;5.258;2023-05-31T09:06:33;98519.09;;;41.77;15.70
64294;BME280;50636;45.596;5.258;2023-05-31T09:09:00;98521.13;;;41.42;15.78
64294;BME280;50636;45.596;5.258;2023-05-31T09:11:26;98518.25;;;41.15;16.03
64294;BME280;50636;45.596;5.258;2023-05-31T09:13:53;98527.00;;;41.06;16.07
64294;BME280;50636;45.596;5.258;2023-05-31T09:16:25;98519.69;;;40.92;16.44
64294;BME280;50636;45.596;5.258;2023-05-31T09:19:03;98523.41;;;41.47;16.01
64294;BME280;50636;45.596;5.258;2023-05-31T09:21:29;98526.53;;;42.11;15.67
64294;BME280;50636;45.596;5.258;2023-05-31T09:23:56;98507.66;;;42.60;15.22
64294;BME280;50636;45.596;5.258;2023-05-31T09:26:23;98511.53;;;42.63;15.35
64294;BME280;50636;45.596;5.258;2023-05-31T09:28:55;98514.44;;;42.76;14.99
64294;BME280;50636;45.596;5.258;2023-05-31T09:31:21;98506.66;;;42.70;15.06
64294;BME280;50636;45.596;5.258;2023-05-31T09:33:49;98514.31;;;41.81;15.61
64294;BME280;50636;45.596;5.258;2023-05-31T09:36:26;98511.91;;;40.84;16.77
64294;BME280;50636;45.596;5.258;2023-05-31T09:39:11;98517.50;;;41.11;16.46
64294;BME280;50636;45.596;5.258;2023-05-31T09:41:38;98511.78;;;41.32;16.23
64294;BME280;50636;45.596;5.258;2023-05-31T09:44:07;98501.28;;;41.55;16.10
64294;BME280;50636;45.596;5.258;2023-05-31T09:46:34;98509.50;;;41.89;16.38
64294;BME280;50636;45.596;5.258;2023-05-31T09:49:05;98509.81;;;41.95;16.03
64294;BME280;50636;45.596;5.258;2023-05-31T09:51:32;98507.06;;;41.95;15.74
64294;BME280;50636;45.596;5.258;2023-05-31T09:54:03;98509.09;;;41.90;15.98
64294;BME280;50636;45.596;5.258;2023-05-31T09:56:39;98492.25;;;41.54;15.82
64294;BME280;50636;45.596;5.258;2023-05-31T09:59:06;98495.22;;;41.02;16.33
64294;BME280;50636;45.596;5.258;2023-05-31T10:01:33;98496.50;;;41.28;16.21
64294;BME280;50636;45.596;5.258;2023-05-31T10:04:00;98496.16;;;41.26;16.20
64294;BME280;50636;45.596;5.258;2023-05-31T10:06:26;98491.41;;;41.26;16.29
64294;BME280;50636;45.596;5.258;2023-05-31T10:08:52;98501.22;;;41.62;16.15
64294;BME280;50636;45.596;5.258;2023-05-31T10:11:23;98492.69;;;41.49;16.22
64294;BME280;50636;45.596;5.258;2023-05-31T10:13:52;98485.72;;;41.99;15.83
64294;BME280;50636;45.596;5.258;2023-05-31T10:16:24;98476.00;;;42.41;15.63
64294;BME280;50636;45.596;5.258;2023-05-31T10:18:52;98484.09;;;42.05;15.69
64294;BME280;50636;45.596;5.258;2023-05-31T10:21:24;98487.94;;;41.84;15.70
64294;BME280;50636;45.596;5.258;2023-05-31T10:24:07;98483.44;;;42.21;15.46
64294;BME280;50636;45.596;5.258;2023-05-31T10:29:20;98465.06;;;42.81;15.13
64294;BME280;50636;45.596;5.258;2023-05-31T10:31:49;98465.22;;;42.94;15.08
64294;BME280;50636;45.596;5.258;2023-05-31T10:34:23;98469.00;;;42.60;15.11
64294;BME280;50636;45.596;5.258;2023-05-31T10:36:50;98467.53;;;41.78;15.30
64294;BME280;50636;45.596;5.258;2023-05-31T10:42:20;98473.47;;;41.76;15.61
64294;BME280;50636;45.596;5.258;2023-05-31T10:45:06;98465.47;;;41.55;15.81
64294;BME280;50636;45.596;5.258;2023-05-31T10:48:02;98470.38;;;41.70;15.78
64294;BME280;50636;45.596;5.258;2023-05-31T10:50:28;98463.03;;;41.87;15.13
64294;BME280;50636;45.596;5.258;2023-05-31T10:53:10;98452.81;;;41.61;15.35
64294;BME280;50636;45.596;5.258;2023-05-31T10:55:43;98444.44;;;41.68;15.26
64294;BME280;50636;45.596;5.258;2023-05-31T10:58:32;98453.53;;;41.65;14.86
64294;BME280;50636;45.596;5.258;2023-05-31T11:01:04;98451.75;;;42.05;15.20
64294;BME280;50636;45.596;5.258;2023-05-31T11:03:33;98446.69;;;42.51;14.54
64294;BME280;50636;45.596;5.258;2023-05-31T11:06:06;98444.31;;;42.73;14.54
64294;BME280;50636;45.596;5.258;2023-05-31T11:08:34;98447.44;;;42.75;14.41
64294;BME280;50636;45.596;5.258;2023-05-31T11:11:42;98441.91;;;42.75;14.16
64294;BME280;50636;45.596;5.258;2023-05-31T11:14:30;98434.19;;;42.66;14.26
64294;BME280;50636;45.596;5.258;2023-05-31T11:19:31;98427.78;;;42.49;14.86
64294;BME280;50636;45.596;5.258;2023-05-31T11:22:05;98433.84;;;42.64;14.29
64294;BME280;50636;45.596;5.258;2023-05-31T11:24:33;98428.25;;;43.08;14.00
64294;BME280;50636;45.596;5.258;2023-05-31T11:27:02;98430.53;;;42.93;14.11
64294;BME280;50636;45.596;5.258;2023-05-31T11:32:53;98431.97;;;41.29;15.49
64294;BME280;50636;45.596;5.258;2023-05-31T11:35:14;98424.72;;;40.73;15.71
64294;BME280;50636;45.596;5.258;2023-05-31T11:37:40;98419.63;;;41.06;15.65
64294;BME280;50636;45.596;5.258;2023-05-31T11:40:09;98414.09;;;41.95;15.22
64294;BME280;50636;45.596;5.258;2023-05-31T11:42:41;98410.09;;;42.47;14.62
64294;BME280;50636;45.596;5.258;2023-05-31T11:45:15;98408.00;;;42.31;14.71
64294;BME280;50636;45.596;5.258;2023-05-31T11:47:53;98399.06;;;42.47;14.70
64294;BME280;50636;45.596;5.258;2023-05-31T11:50:24;98403.81;;;43.06;14.08
64294;BME280;50636;45.596;5.258;2023-05-31T11:52:50;98402.84;;;43.53;14.19
64294;BME280;50636;45.596;5.258;2023-05-31T11:55:17;98411.16;;;44.19;13.88
64294;BME280;50636;45.596;5.258;2023-05-31T11:57:48;98412.41;;;44.76;12.93
64294;BME280;50636;45.596;5.258;2023-05-31T12:00:19;98402.34;;;44.70;13.03
64294;BME280;50636;45.596;5.258;2023-05-31T12:02:52;98403.63;;;44.03;13.03
64294;BME280;50636;45.596;5.258;2023-05-31T12:05:19;98403.69;;;43.66;13.62
64294;BME280;50636;45.596;5.258;2023-05-31T12:07:45;98407.78;;;43.25;13.84
64294;BME280;50636;45.596;5.258;2023-05-31T12:10:12;98397.81;;;42.92;14.24
64294;BME280;50636;45.596;5.258;2023-05-31T12:12:39;98403.84;;;42.66;14.50
64294;BME280;50636;45.596;5.258;2023-05-31T12:15:08;98393.44;;;42.30;14.29
64294;BME280;50636;45.596;5.258;2023-05-31T12:17:37;98391.19;;;42.02;14.65
64294;BME280;50636;45.596;5.258;2023-05-31T12:20:04;98400.00;;;41.35;15.21
64294;BME280;50636;45.596;5.258;2023-05-31T12:22:38;98400.38;;;40.30;15.99
64294;BME280;50636;45.596;5.258;2023-05-31T12:25:04;98401.00;;;39.37;16.97
64294;BME280;50636;45.596;5.258;2023-05-31T12:27:31;98398.97;;;38.46;17.88
64294;BME280;50636;45.596;5.258;2023-05-31T12:29:57;98406.38;;;37.81;18.66
64294;BME280;50636;45.596;5.258;2023-05-31T12:32:23;98407.50;;;37.58;18.85
64294;BME280;50636;45.596;5.258;2023-05-31T12:35:05;98406.56;;;37.11;19.47
64294;BME280;50636;45.596;5.258;2023-05-31T12:37:38;98408.34;;;36.78;19.34
64294;BME280;50636;45.596;5.258;2023-05-31T12:40:11;98404.75;;;36.63;19.78
64294;BME280;50636;45.596;5.258;2023-05-31T12:42:37;98406.56;;;36.45;19.99
64294;BME280;50636;45.596;5.258;2023-05-31T12:45:08;98406.59;;;36.52;19.47
64294;BME280;50636;45.596;5.258;2023-05-31T12:47:34;98401.81;;;36.34;20.06
64294;BME280;50636;45.596;5.258;2023-05-31T12:50:05;98396.19;;;36.72;19.45
64294;BME280;50636;45.596;5.258;2023-05-31T12:52:38;98396.91;;;36.62;19.76
64294;BME280;50636;45.596;5.258;2023-05-31T12:55:05;98389.94;;;36.16;20.39
64294;BME280;50636;45.596;5.258;2023-05-31T12:57:32;98389.25;;;35.78;20.84
64294;BME280;50636;45.596;5.258;2023-05-31T13:00:02;98388.13;;;35.49;20.78
64294;BME280;50636;45.596;5.258;2023-05-31T13:02:31;98374.44;;;35.11;21.67
64294;BME280;50636;45.596;5.258;2023-05-31T13:04:56;98382.56;;;35.38;21.36
64294;BME280;50636;45.596;5.258;2023-05-31T13:07:22;98372.16;;;35.88;20.67
64294;BME280;50636;45.596;5.258;2023-05-31T13:09:48;98380.09;;;36.04;20.41
64294;BME280;50636;45.596;5.258;2023-05-31T13:12:14;98376.13;;;35.94;21.09
64294;BME280;50636;45.596;5.258;2023-05-31T13:14:39;98382.88;;;35.67;21.34
64294;BME280;50636;45.596;5.258;2023-05-31T13:17:05;98381.00;;;35.37;21.41
64294;BME280;50636;45.596;5.258;2023-05-31T13:19:31;98388.94;;;35.15;21.55
64294;BME280;50636;45.596;5.258;2023-05-31T13:21:57;98390.38;;;35.06;21.92
64294;BME280;50636;45.596;5.258;2023-05-31T13:24:23;98382.97;;;35.06;22.00
64294;BME280;50636;45.596;5.258;2023-05-31T13:26:49;98392.16;;;34.94;21.89